createdAt,value
2022-08-18T00:01:31.402Z,78.97
2022-08-18T00:04:02.785Z,79.40
2022-08-18T00:06:31.042Z,79.87
2022-08-18T00:09:02.193Z,78.34
2022-08-18T00:11:41.145Z,77.20
2022-08-18T00:14:21.682Z,75.90
2022-08-18T00:16:52.798Z,74.66
2022-08-18T00:19:19.920Z,74.14
2022-08-18T00:21:46.485Z,73.96
2022-08-18T00:24:13.039Z,73.58
2022-08-18T00:26:39.611Z,77.16
2022-08-18T00:29:07.534Z,76.57
2022-08-18T00:31:34.430Z,75.57
2022-08-18T00:34:01.077Z,75.50
2022-08-18T00:36:27.945Z,76.75
2022-08-18T00:38:54.452Z,76.61
2022-08-18T00:41:21.296Z,76.07
2022-08-18T00:43:50.570Z,76.12
2022-08-18T00:46:21.092Z,75.52
2022-08-18T00:48:48.284Z,75.73
2022-08-18T00:51:30.089Z,74.84
2022-08-18T00:54:08.477Z,74.65
2022-08-18T00:56:43.150Z,75.46
2022-08-18T00:59:31.162Z,73.87
2022-08-18T01:02:01.744Z,73.43
2022-08-18T01:04:33.895Z,73.37
2022-08-18T01:07:07.016Z,72.76
2022-08-18T01:09:33.870Z,73.54
2022-08-18T01:12:00.372Z,72.83
2022-08-18T01:14:39.087Z,73.09
2022-08-18T01:17:05.614Z,73.73
2022-08-18T01:19:37.482Z,73.66
2022-08-18T01:22:20.867Z,74.03
2022-08-18T01:24:47.562Z,75.34
2022-08-18T01:27:16.612Z,74.81
2022-08-18T01:29:50.287Z,75.48
2022-08-18T01:32:23.145Z,76.21
2022-08-18T01:34:51.723Z,75.87
2022-08-18T01:37:23.546Z,78.08
2022-08-18T01:41:24.960Z,78.34
2022-08-18T01:42:39.170Z,79.63
2022-08-18T01:45:07.470Z,81.31
2022-08-18T01:47:47.685Z,80.96
2022-08-18T01:50:21.241Z,82.20
2022-08-18T01:52:47.750Z,81.89
2022-08-18T01:55:14.703Z,82.88
2022-08-18T01:57:41.547Z,80.70
2022-08-18T02:00:09.213Z,82.38
2022-08-18T02:02:40.731Z,82.54
2022-08-18T02:05:14.657Z,82.48
2022-08-18T02:07:41.143Z,83.33
2022-08-18T02:10:12.007Z,81.96
2022-08-18T02:12:40.728Z,80.14
2022-08-18T02:15:09.548Z,79.75
2022-08-18T02:17:45.019Z,80.14
2022-08-18T02:20:15.369Z,78.35
2022-08-18T02:22:42.774Z,78.06
2022-08-18T02:25:12.174Z,77.43
2022-08-18T02:27:38.728Z,75.52
2022-08-18T02:30:09.373Z,74.04
2022-08-18T02:32:36.185Z,73.06
2022-08-18T02:35:04.905Z,74.12
2022-08-18T02:37:35.143Z,74.89
2022-08-18T02:40:01.712Z,73.22
2022-08-18T02:42:28.840Z,74.34
2022-08-18T02:44:55.386Z,74.45
2022-08-18T02:47:22.287Z,74.44
2022-08-18T02:49:48.986Z,74.70
2022-08-18T02:52:15.632Z,76.43
2022-08-18T02:54:42.134Z,76.11
2022-08-18T02:57:10.786Z,76.45
2022-08-18T02:59:38.900Z,75.22
2022-08-18T03:02:07.636Z,74.47
2022-08-18T03:04:34.582Z,73.08
2022-08-18T03:07:05.228Z,73.15
2022-08-18T03:09:33.383Z,72.52
2022-08-18T03:12:00.838Z,72.40
2022-08-18T03:14:28.563Z,72.85
2022-08-18T03:16:55.605Z,72.28
2022-08-18T03:19:24.506Z,72.35
2022-08-18T03:21:51.300Z,72.28
2022-08-18T03:24:22.968Z,72.49
2022-08-18T03:26:52.545Z,72.06
2022-08-18T03:29:20.216Z,71.66
2022-08-18T03:31:47.551Z,72.41
2022-08-18T03:34:20.090Z,71.94
2022-08-18T03:36:49.004Z,72.26
2022-08-18T03:39:17.053Z,72.00
2022-08-18T03:41:58.432Z,73.20
2022-08-18T03:44:29.485Z,73.42
2022-08-18T03:46:55.978Z,72.81
2022-08-18T03:49:22.489Z,73.12
2022-08-18T03:51:49.199Z,73.09
2022-08-18T03:54:17.775Z,73.70
2022-08-18T03:56:46.236Z,73.57
2022-08-18T03:59:17.089Z,72.85
2022-08-18T04:01:46.113Z,72.04
2022-08-18T04:04:17.733Z,72.37
2022-08-18T04:06:48.942Z,73.04
2022-08-18T04:09:16.861Z,73.29
2022-08-18T04:11:45.232Z,73.97
2022-08-18T04:14:31.715Z,73.30
2022-08-18T04:17:01.589Z,73.40
2022-08-18T04:19:28.448Z,75.01
2022-08-18T04:21:57.585Z,74.87
2022-08-18T04:24:28.105Z,74.14
2022-08-18T04:26:59.430Z,74.02
2022-08-18T04:29:25.966Z,73.60
2022-08-18T04:31:52.967Z,73.24
2022-08-18T04:34:20.900Z,73.36
2022-08-18T04:36:47.525Z,73.24
2022-08-18T04:39:14.022Z,73.15
2022-08-18T04:41:43.298Z,73.33
2022-08-18T04:44:12.388Z,73.67
2022-08-18T04:46:41.995Z,74.01
2022-08-18T04:49:10.438Z,73.43
2022-08-18T04:52:30.844Z,74.37
2022-08-18T04:54:28.983Z,74.71
2022-08-18T04:56:55.528Z,74.86
2022-08-18T04:59:22.372Z,74.51
2022-08-18T05:01:48.866Z,74.85
2022-08-18T05:04:17.593Z,74.71
2022-08-18T05:09:16.371Z,75.42
2022-08-18T05:11:43.733Z,77.59
2022-08-18T05:14:11.266Z,76.90
2022-08-18T05:16:47.724Z,75.88
2022-08-18T05:19:19.275Z,75.10
2022-08-18T05:24:18.121Z,74.74
2022-08-18T05:26:44.701Z,74.75
2022-08-18T05:29:18.957Z,74.80
2022-08-18T05:31:46.876Z,75.71
2022-08-18T05:34:13.828Z,75.44
2022-08-18T05:36:56.645Z,75.15
2022-08-18T05:39:45.918Z,74.60
2022-08-18T05:42:20.037Z,74.52
2022-08-18T05:44:50.213Z,74.63
2022-08-18T05:47:19.917Z,74.05
2022-08-18T05:49:48.774Z,73.91
2022-08-18T05:52:23.411Z,73.68
2022-08-18T05:55:00.038Z,73.57
2022-08-18T05:57:33.569Z,72.77
2022-08-18T06:00:00.717Z,73.23
2022-08-18T06:02:36.541Z,72.81
2022-08-18T06:05:25.263Z,73.14
2022-08-18T06:07:58.764Z,72.75
2022-08-18T06:10:25.496Z,72.00
2022-08-18T06:13:01.393Z,71.60
2022-08-18T06:15:55.572Z,71.66
2022-08-18T06:18:46.928Z,71.43
2022-08-18T06:21:39.102Z,71.37
2022-08-18T06:24:25.979Z,70.85
2022-08-18T06:27:01.423Z,71.06
2022-08-18T06:29:37.801Z,70.75
2022-08-18T06:32:37.836Z,70.02
2022-08-18T06:35:13.061Z,70.15
2022-08-18T06:38:10.485Z,68.61
2022-08-18T06:40:36.963Z,69.41
2022-08-18T06:43:05.753Z,68.84
2022-08-18T06:45:39.993Z,68.14
2022-08-18T06:48:21.111Z,68.77
2022-08-18T06:50:56.707Z,68.07
2022-08-18T06:53:54.195Z,68.04
2022-08-18T06:56:38.573Z,67.94
2022-08-18T06:59:19.709Z,68.03
2022-08-18T07:01:52.206Z,68.02
2022-08-18T07:04:37.014Z,67.69
2022-08-18T07:07:19.344Z,65.69
2022-08-18T07:09:47.391Z,66.30
2022-08-18T07:12:21.468Z,66.41
2022-08-18T07:14:52.856Z,66.53
2022-08-18T07:17:42.532Z,67.35
2022-08-18T07:20:30.957Z,67.19
2022-08-18T07:23:00.603Z,66.03
2022-08-18T07:25:44.187Z,65.16
2022-08-18T07:28:32.055Z,66.54
2022-08-18T07:31:21.820Z,65.11
2022-08-18T07:33:57.224Z,64.77
2022-08-18T07:36:30.545Z,64.76
2022-08-18T07:39:15.419Z,64.24
2022-08-18T07:41:52.303Z,64.72
2022-08-18T07:44:34.698Z,67.26
2022-08-18T07:47:22.118Z,68.39
2022-08-18T07:50:16.534Z,67.27
2022-08-18T07:52:47.530Z,67.10
2022-08-18T07:55:23.139Z,65.34
2022-08-18T07:58:10.554Z,64.13
2022-08-18T08:00:59.266Z,64.61
2022-08-18T08:03:47.865Z,64.81
2022-08-18T08:06:23.896Z,64.56
2022-08-18T08:09:14.954Z,63.55
2022-08-18T08:12:03.588Z,63.53
2022-08-18T08:14:45.187Z,63.05
2022-08-18T08:17:24.350Z,62.28
2022-08-18T08:20:15.853Z,62.16
2022-08-18T08:22:48.388Z,61.80
2022-08-18T08:25:45.312Z,60.46
2022-08-18T08:28:29.365Z,61.02
2022-08-18T08:31:33.457Z,60.42
2022-08-18T08:34:14.909Z,60.38
2022-08-18T08:36:45.371Z,62.29
2022-08-18T08:39:22.674Z,61.96
2022-08-18T08:42:30.464Z,60.84
2022-08-18T08:44:59.784Z,59.12
2022-08-18T08:47:50.573Z,59.50
2022-08-18T08:50:24.819Z,56.79
2022-08-18T08:52:59.032Z,54.81
2022-08-18T08:55:34.227Z,54.03
2022-08-18T08:58:20.945Z,52.16
2022-08-18T09:00:53.607Z,52.15
2022-08-18T09:03:31.328Z,50.90
2022-08-18T09:06:21.033Z,49.19
2022-08-18T09:09:23.925Z,48.23
2022-08-18T09:12:13.822Z,48.37
2022-08-18T09:15:06.696Z,49.09
2022-08-18T09:17:41.254Z,48.62
2022-08-18T09:20:48.991Z,48.33
2022-08-18T09:23:24.954Z,48.64
2022-08-18T09:25:55.728Z,49.64
2022-08-18T09:28:54.482Z,48.43
2022-08-18T09:31:20.992Z,47.98
2022-08-18T09:34:41.415Z,48.95
2022-08-18T09:37:37.578Z,48.26
2022-08-18T09:40:16.742Z,51.05
2022-08-18T09:43:20.302Z,52.15
2022-08-18T09:45:46.890Z,53.03
2022-08-18T09:48:20.663Z,52.53
2022-08-18T09:50:54.960Z,51.81
2022-08-18T09:53:33.301Z,51.22
2022-08-18T09:58:59.621Z,51.89
2022-08-18T10:01:36.753Z,51.40
2022-08-18T10:04:15.374Z,50.99
2022-08-18T10:06:48.390Z,52.20
2022-08-18T10:09:36.843Z,52.59
2022-08-18T10:12:31.178Z,52.74
2022-08-18T10:15:33.049Z,53.54
2022-08-18T10:18:26.392Z,51.65
2022-08-18T10:21:21.140Z,50.34
2022-08-18T10:24:14.593Z,49.22
2022-08-18T10:26:42.022Z,49.22
2022-08-18T10:29:24.478Z,49.22
2022-08-18T10:31:57.486Z,50.67
2022-08-18T10:34:52.359Z,51.81
2022-08-18T10:37:26.695Z,51.14
2022-08-18T10:40:10.067Z,50.80
2022-08-18T10:42:50.695Z,50.10
2022-08-18T10:45:30.348Z,48.90
2022-08-18T10:48:24.311Z,49.28
2022-08-18T10:51:21.510Z,49.09
2022-08-18T10:54:18.698Z,48.38
2022-08-18T10:57:08.085Z,47.69
2022-08-18T10:59:58.030Z,48.96
2022-08-18T11:02:48.764Z,49.12
2022-08-18T11:05:23.275Z,49.42
2022-08-18T11:11:27.558Z,47.27
2022-08-18T11:14:14.815Z,49.59
2022-08-18T11:16:53.394Z,49.96
2022-08-18T11:19:22.672Z,51.42
2022-08-18T11:21:52.238Z,50.88
2022-08-18T11:24:21.051Z,51.49
2022-08-18T11:26:57.134Z,52.95
2022-08-18T11:29:27.759Z,52.06
2022-08-18T11:32:01.984Z,50.55
2022-08-18T11:34:58.359Z,49.98
2022-08-18T11:41:10.517Z,51.65
2022-08-18T11:43:25.934Z,49.89
2022-08-18T11:46:12.790Z,48.38
2022-08-18T11:48:51.739Z,47.69
2022-08-18T11:51:29.533Z,47.21
2022-08-18T11:54:01.107Z,47.15
2022-08-18T11:56:36.008Z,49.48
2022-08-18T11:59:52.210Z,49.66
2022-08-18T12:02:17.690Z,49.06
2022-08-18T12:04:50.888Z,49.80
2022-08-18T12:07:28.748Z,48.24
2022-08-18T12:13:25.066Z,47.81
2022-08-18T12:16:31.189Z,46.82
2022-08-18T12:18:57.699Z,46.10
2022-08-18T12:21:24.337Z,45.09
2022-08-18T12:23:52.562Z,44.55
2022-08-18T12:26:38.465Z,44.53
2022-08-18T12:29:08.703Z,44.63
2022-08-18T12:37:54.493Z,45.99
2022-08-18T12:40:06.094Z,46.19
2022-08-18T12:42:32.813Z,45.85
2022-08-18T12:45:02.063Z,45.38
2022-08-18T12:47:31.336Z,43.86
2022-08-18T12:49:58.775Z,45.00
2022-08-18T12:52:27.949Z,43.37
2022-08-18T12:54:55.278Z,42.92
2022-08-18T13:00:16.874Z,43.15
2022-08-18T13:02:45.322Z,42.05
2022-08-18T13:05:12.190Z,41.39
2022-08-18T13:07:39.017Z,42.20
2022-08-18T13:10:06.732Z,44.05
2022-08-18T13:12:33.222Z,43.77
2022-08-18T13:15:00.119Z,43.09
2022-08-18T13:17:29.772Z,42.55
2022-08-18T13:20:09.274Z,41.93
2022-08-18T13:22:37.540Z,41.19
2022-08-18T13:25:05.754Z,41.92
2022-08-18T13:27:35.353Z,43.45
2022-08-18T13:30:16.701Z,44.45
2022-08-18T13:32:59.187Z,44.90
2022-08-18T13:35:30.104Z,44.48
2022-08-18T13:38:06.522Z,43.77
2022-08-18T13:40:46.990Z,43.85
2022-08-18T13:43:15.115Z,43.21
2022-08-18T13:45:43.970Z,43.69
2022-08-18T13:48:11.227Z,43.14
2022-08-18T13:50:39.893Z,42.68
2022-08-18T13:53:15.586Z,42.41
2022-08-18T13:55:42.157Z,42.26
2022-08-18T13:58:17.513Z,42.14
2022-08-18T14:00:51.261Z,42.82
2022-08-18T14:03:30.703Z,44.03
2022-08-18T14:06:06.160Z,42.73
2022-08-18T14:08:33.688Z,42.14
2022-08-18T14:11:02.997Z,42.08
2022-08-18T14:13:38.371Z,42.32
2022-08-18T14:16:19.055Z,42.18
2022-08-18T14:18:47.400Z,41.72
2022-08-18T14:21:14.399Z,41.58
2022-08-18T14:23:51.434Z,40.76
2022-08-18T14:26:19.779Z,40.57
2022-08-18T14:28:47.601Z,41.51
2022-08-18T14:31:14.381Z,41.85
2022-08-18T14:33:51.606Z,41.84
2022-08-18T14:36:29.783Z,42.28
2022-08-18T14:38:58.313Z,42.16
2022-08-18T14:41:25.570Z,41.79
2022-08-18T14:44:11.280Z,41.97
2022-08-18T14:46:41.082Z,41.85
2022-08-18T14:49:07.715Z,41.50
2022-08-18T14:51:34.213Z,41.51
2022-08-18T14:54:01.471Z,42.43
2022-08-18T14:56:28.456Z,42.74
2022-08-18T14:58:55.754Z,43.98
2022-08-18T15:01:23.855Z,44.02
2022-08-18T15:03:50.433Z,43.98
2022-08-18T15:06:22.727Z,43.94
2022-08-18T15:08:49.747Z,43.96
2022-08-18T15:11:17.083Z,44.10
2022-08-18T15:13:45.362Z,44.34
2022-08-18T15:16:15.129Z,44.30
2022-08-18T15:18:46.373Z,41.30
2022-08-18T15:21:19.501Z,41.31
2022-08-18T15:24:00.676Z,41.56
2022-08-18T15:26:27.556Z,41.44
2022-08-18T15:28:56.280Z,42.23
2022-08-18T15:34:13.822Z,44.21
2022-08-18T15:36:40.767Z,43.92
2022-08-18T15:39:07.644Z,44.58
2022-08-18T15:41:43.990Z,44.83
2022-08-18T15:44:13.448Z,44.70
2022-08-18T15:46:40.425Z,44.56
2022-08-18T15:49:07.712Z,44.59
2022-08-18T15:51:41.114Z,44.95
2022-08-18T15:54:11.360Z,44.91
2022-08-18T15:56:38.495Z,45.93
2022-08-18T15:59:09.932Z,45.58
2022-08-18T16:01:40.535Z,45.19
2022-08-18T16:06:40.374Z,45.18
2022-08-18T16:09:08.183Z,44.56
2022-08-18T16:11:34.791Z,44.30
2022-08-18T16:14:01.285Z,44.11
2022-08-18T16:16:29.736Z,44.20
2022-08-18T16:19:05.072Z,44.12
2022-08-18T16:21:31.585Z,44.27
2022-08-18T16:23:58.067Z,44.39
2022-08-18T16:26:24.577Z,43.97
2022-08-18T16:28:52.878Z,43.87
2022-08-18T16:31:22.320Z,43.84
2022-08-18T16:33:48.795Z,44.22
2022-08-18T16:36:15.323Z,44.24
2022-08-18T16:38:41.797Z,45.82
2022-08-18T16:41:13.905Z,45.50
2022-08-18T16:43:43.414Z,45.49
2022-08-18T16:46:19.561Z,47.29
2022-08-18T16:48:46.062Z,48.32
2022-08-18T16:51:18.798Z,49.28
2022-08-18T16:53:45.962Z,50.09
2022-08-18T16:56:18.326Z,50.18
2022-08-18T16:58:44.856Z,49.55
2022-08-18T17:01:15.632Z,49.11
2022-08-18T17:03:46.556Z,50.11
2022-08-18T17:06:17.578Z,51.36
2022-08-18T17:08:44.729Z,51.82
2022-08-18T17:11:15.585Z,51.56
2022-08-18T17:13:43.673Z,51.80
2022-08-18T17:16:11.413Z,52.30
2022-08-18T17:18:39.491Z,52.67
2022-08-18T17:21:10.256Z,53.88
2022-08-18T17:23:39.037Z,53.98
2022-08-18T17:26:11.329Z,55.18
2022-08-18T17:28:50.779Z,55.09
2022-08-18T17:31:24.851Z,54.07
2022-08-18T17:33:57.406Z,53.51
2022-08-18T17:36:53.163Z,53.35
2022-08-18T17:39:28.444Z,53.55
2022-08-18T17:41:54.952Z,53.06
2022-08-18T17:44:21.461Z,53.17
2022-08-18T17:47:00.288Z,53.93
2022-08-18T17:49:44.441Z,54.26
2022-08-18T17:52:11.278Z,55.38
2022-08-18T17:54:49.130Z,55.37
2022-08-18T17:57:31.767Z,54.42
2022-08-18T18:00:07.588Z,54.64
2022-08-18T18:02:34.083Z,54.75
2022-08-18T18:05:05.256Z,53.54
2022-08-18T18:08:00.501Z,53.90
2022-08-18T18:11:03.958Z,53.31
2022-08-18T18:13:33.716Z,53.51
2022-08-18T18:16:19.310Z,53.50
2022-08-18T18:18:46.297Z,55.13
2022-08-18T18:21:15.719Z,54.36
2022-08-18T18:23:49.751Z,53.91
2022-08-18T18:26:23.783Z,53.28
2022-08-18T18:28:50.287Z,52.95
2022-08-18T18:31:23.530Z,54.69
2022-08-18T18:33:58.032Z,54.52
2022-08-18T18:36:37.053Z,55.11
2022-08-18T18:39:10.388Z,54.75
2022-08-18T18:41:39.988Z,54.57
2022-08-18T18:44:11.406Z,56.95
2022-08-18T18:47:01.341Z,56.20
2022-08-18T18:49:45.629Z,57.67
2022-08-18T18:52:23.899Z,58.38
2022-08-18T18:55:05.350Z,59.98
2022-08-18T18:58:03.295Z,59.64
2022-08-18T19:00:39.924Z,60.62
2022-08-18T19:03:14.287Z,60.82
2022-08-18T19:06:03.295Z,59.32
2022-08-18T19:08:44.736Z,59.56
2022-08-18T19:11:28.818Z,61.36
2022-08-18T19:14:03.470Z,60.40
2022-08-18T19:16:59.629Z,59.51
2022-08-18T19:19:39.429Z,58.46
2022-08-18T19:22:18.895Z,62.66
2022-08-18T19:25:18.030Z,65.13
2022-08-18T19:27:53.288Z,67.67
2022-08-18T19:30:24.124Z,69.46
2022-08-18T19:32:58.612Z,69.85
2022-08-18T19:36:19.362Z,70.04
2022-08-18T19:38:46.021Z,70.75
2022-08-18T19:41:32.438Z,68.49
2022-08-18T19:44:16.452Z,68.06
2022-08-18T19:46:48.806Z,66.82
2022-08-18T19:49:36.682Z,66.27
2022-08-18T19:52:47.562Z,63.96
2022-08-18T19:55:46.016Z,62.92
2022-08-18T19:58:24.683Z,62.46
2022-08-18T20:01:13.301Z,61.03
2022-08-18T20:03:58.236Z,61.45
2022-08-18T20:06:34.509Z,61.30
2022-08-18T20:10:00.931Z,61.09
2022-08-18T20:12:39.313Z,62.22
2022-08-18T20:15:12.731Z,60.96
2022-08-18T20:17:57.336Z,60.83
2022-08-18T20:20:27.093Z,60.78
2022-08-18T20:22:57.683Z,61.16
2022-08-18T20:25:24.228Z,60.37
2022-08-18T20:27:58.932Z,59.30
2022-08-18T20:30:33.412Z,59.40
2022-08-18T20:33:09.368Z,58.84
2022-08-18T20:36:00.610Z,59.17
2022-08-18T20:38:35.381Z,60.13
2022-08-18T20:41:22.958Z,60.35
2022-08-18T20:43:53.272Z,61.83
2022-08-18T20:46:49.497Z,62.32
2022-08-18T20:49:48.019Z,62.97
2022-08-18T20:52:43.412Z,62.36
2022-08-18T20:55:19.070Z,63.95
2022-08-18T20:57:46.810Z,64.09
2022-08-18T21:00:22.736Z,64.06
2022-08-18T21:03:05.374Z,64.63
2022-08-18T21:05:37.427Z,64.86
2022-08-18T21:08:15.777Z,63.79
2022-08-18T21:10:55.282Z,64.16
2022-08-18T21:13:35.335Z,62.90
2022-08-18T21:16:02.201Z,62.90
2022-08-18T21:18:28.744Z,62.97
2022-08-18T21:20:59.075Z,63.03
2022-08-18T21:23:30.651Z,62.86
2022-08-18T21:26:06.549Z,62.00
2022-08-18T21:28:37.788Z,61.94
2022-08-18T21:31:41.821Z,62.86
2022-08-18T21:34:14.349Z,63.75
2022-08-18T21:36:54.145Z,63.67
2022-08-18T21:39:21.853Z,63.27
2022-08-18T21:41:52.610Z,64.59
2022-08-18T21:44:39.405Z,64.69
2022-08-18T21:47:14.937Z,65.94
2022-08-18T21:50:01.312Z,67.30
2022-08-18T21:52:30.846Z,68.51
2022-08-18T21:55:04.712Z,71.02
2022-08-18T21:57:58.585Z,72.30
2022-08-18T22:00:28.740Z,73.96
2022-08-18T22:03:17.016Z,73.42
2022-08-18T22:05:58.410Z,76.11
2022-08-18T22:08:29.667Z,76.56
2022-08-18T22:11:17.353Z,76.85
2022-08-18T22:14:27.585Z,76.39
2022-08-18T22:17:24.024Z,76.69
2022-08-18T22:19:50.786Z,78.66
2022-08-18T22:22:21.245Z,78.39
2022-08-18T22:24:54.790Z,79.80
2022-08-18T22:27:25.196Z,79.71
2022-08-18T22:29:55.262Z,81.41
2022-08-18T22:32:22.059Z,81.22
2022-08-18T22:34:49.464Z,81.23
2022-08-18T22:37:30.166Z,82.31
2022-08-18T22:40:00.899Z,84.31
2022-08-18T22:42:30.676Z,86.51
2022-08-18T22:45:01.490Z,88.28
2022-08-18T22:47:31.374Z,88.84
2022-08-18T22:50:07.447Z,88.83
2022-08-18T22:52:39.839Z,89.02
2022-08-18T22:55:11.943Z,89.21
2022-08-18T22:57:40.600Z,89.35
2022-08-18T23:00:15.474Z,87.07
2022-08-18T23:02:42.753Z,85.94
2022-08-18T23:05:11.006Z,84.37
2022-08-18T23:07:37.503Z,82.56
2022-08-18T23:10:08.135Z,80.77
2022-08-18T23:12:41.272Z,80.92
2022-08-18T23:15:08.028Z,82.73
2022-08-18T23:17:34.591Z,80.69
2022-08-18T23:20:01.088Z,83.06
2022-08-18T23:22:27.804Z,83.60
2022-08-18T23:24:54.325Z,84.41
2022-08-18T23:27:20.869Z,85.84
2022-08-18T23:29:48.543Z,85.90
2022-08-18T23:32:15.092Z,85.96
2022-08-18T23:34:41.604Z,85.40
2022-08-18T23:37:08.108Z,85.59
2022-08-18T23:39:36.481Z,86.12
2022-08-18T23:42:04.866Z,87.04
2022-08-18T23:44:33.054Z,88.15
2022-08-18T23:47:00.132Z,88.38
2022-08-18T23:49:29.328Z,90.21
2022-08-18T23:51:57.518Z,91.78
2022-08-18T23:54:30.809Z,92.56
2022-08-18T23:56:57.864Z,92.17
2022-08-18T23:59:26.491Z,92.20
